createdAt,value
2019-03-09T00:00:53.818Z,7.20
2019-03-09T00:03:22.234Z,7.30
2019-03-09T00:05:50.662Z,7.30
2019-03-09T00:08:19.095Z,7.30
2019-03-09T00:10:47.511Z,7.20
2019-03-09T00:13:15.951Z,7.30
2019-03-09T00:15:44.369Z,7.20
2019-03-09T00:18:12.811Z,7.20
2019-03-09T00:20:41.310Z,7.10
2019-03-09T00:23:27.717Z,7.10
2019-03-09T00:26:10.123Z,7.00
2019-03-09T00:28:40.219Z,7.00
2019-03-09T00:31:25.521Z,7.00
2019-03-09T00:33:54.130Z,7.00
2019-03-09T00:36:22.557Z,7.00
2019-03-09T00:38:50.978Z,7.00
2019-03-09T00:41:19.447Z,7.10
2019-03-09T00:43:47.852Z,7.10
2019-03-09T00:46:16.395Z,7.20
2019-03-09T00:48:44.816Z,7.30
2019-03-09T00:51:13.367Z,7.20
2019-03-09T00:53:41.810Z,7.30
2019-03-09T00:56:10.241Z,7.30
2019-03-09T00:58:38.663Z,7.30
2019-03-09T01:01:07.071Z,7.30
2019-03-09T01:03:35.515Z,7.30
2019-03-09T01:06:04.006Z,7.30
2019-03-09T01:08:32.443Z,7.30
2019-03-09T01:11:00.854Z,9.10
2019-03-09T01:13:29.282Z,7.40
2019-03-09T01:15:57.698Z,7.40
2019-03-09T01:18:26.114Z,7.40
2019-03-09T01:20:54.609Z,7.50
2019-03-09T01:23:23.190Z,7.40
2019-03-09T01:25:51.755Z,7.50
2019-03-09T01:28:20.243Z,7.50
2019-03-09T01:30:48.676Z,7.40
2019-03-09T01:33:17.091Z,7.40
2019-03-09T01:35:45.699Z,7.40
2019-03-09T01:38:14.118Z,7.30
2019-03-09T01:40:42.571Z,7.30
2019-03-09T01:43:10.981Z,7.40
2019-03-09T01:45:39.455Z,7.40
2019-03-09T01:48:07.906Z,7.40
2019-03-09T01:50:36.313Z,7.40
2019-03-09T01:53:04.847Z,7.30
2019-03-09T01:55:33.278Z,7.20
2019-03-09T01:58:01.706Z,7.10
2019-03-09T02:00:30.395Z,7.10
2019-03-09T02:02:58.835Z,7.00
2019-03-09T02:05:27.367Z,6.90
2019-03-09T02:07:55.791Z,6.90
2019-03-09T02:10:24.313Z,6.90
2019-03-09T02:12:52.831Z,6.90
2019-03-09T02:15:21.320Z,6.90
2019-03-09T02:17:49.739Z,6.70
2019-03-09T02:20:18.415Z,6.70
2019-03-09T02:22:46.834Z,6.70
2019-03-09T02:25:15.738Z,6.60
2019-03-09T02:27:44.179Z,6.60
2019-03-09T02:30:16.973Z,6.60
2019-03-09T02:32:45.520Z,6.50
2019-03-09T02:35:15.183Z,6.50
2019-03-09T02:37:43.623Z,6.40
2019-03-09T02:40:16.925Z,6.50
2019-03-09T02:42:45.347Z,6.50
2019-03-09T02:45:16.365Z,6.50
2019-03-09T02:47:44.782Z,6.40
2019-03-09T02:50:15.130Z,6.40
2019-03-09T02:52:43.634Z,6.30
2019-03-09T02:55:13.218Z,6.30
2019-03-09T02:57:41.728Z,6.30
2019-03-09T03:00:20.206Z,6.30
2019-03-09T03:02:50.338Z,6.30
2019-03-09T03:05:18.799Z,6.20
2019-03-09T03:07:47.394Z,6.10
2019-03-09T03:10:16.168Z,6.00
2019-03-09T03:12:44.579Z,6.00
2019-03-09T03:15:30.212Z,6.00
2019-03-09T03:17:58.650Z,6.00
2019-03-09T03:20:27.148Z,6.00
2019-03-09T03:22:55.635Z,6.00
2019-03-09T03:25:24.119Z,6.00
2019-03-09T03:27:52.556Z,6.00
2019-03-09T03:30:20.981Z,6.10
2019-03-09T03:32:49.472Z,6.10
2019-03-09T03:35:17.910Z,6.10
2019-03-09T03:37:46.343Z,6.20
2019-03-09T03:40:14.895Z,6.20
2019-03-09T03:42:43.310Z,6.20
2019-03-09T03:45:13.891Z,6.20
2019-03-09T03:47:42.312Z,6.20
2019-03-09T03:50:10.818Z,6.20
2019-03-09T03:52:39.239Z,6.20
2019-03-09T03:55:09.494Z,6.20
2019-03-09T03:57:38.087Z,6.20
2019-03-09T04:00:14.241Z,6.20
2019-03-09T04:02:42.908Z,6.20
2019-03-09T04:05:11.740Z,6.20
2019-03-09T04:07:41.218Z,6.20
2019-03-09T04:10:12.207Z,6.30
2019-03-09T04:12:41.930Z,6.30
2019-03-09T04:15:10.675Z,6.30
2019-03-09T04:17:39.083Z,6.30
2019-03-09T04:20:09.829Z,6.30
2019-03-09T04:22:38.241Z,6.30
2019-03-09T04:25:08.007Z,6.30
2019-03-09T04:27:36.426Z,6.30
2019-03-09T04:30:07.624Z,6.40
2019-03-09T04:32:36.058Z,6.40
2019-03-09T04:35:05.503Z,6.40
2019-03-09T04:37:33.943Z,6.50
2019-03-09T04:40:02.358Z,6.50
2019-03-09T04:42:30.854Z,6.60
2019-03-09T04:44:59.295Z,6.60
2019-03-09T04:47:27.736Z,6.60
2019-03-09T04:49:56.166Z,6.60
2019-03-09T04:52:24.582Z,6.70
2019-03-09T04:54:53.021Z,6.70
2019-03-09T04:57:21.455Z,6.80
2019-03-09T04:59:49.951Z,6.80
2019-03-09T05:02:18.387Z,6.90
2019-03-09T05:04:47.462Z,6.90
2019-03-09T05:07:19.410Z,7.00
2019-03-09T05:10:14.906Z,7.00
2019-03-09T05:12:45.164Z,7.00
2019-03-09T05:15:14.643Z,7.00
2019-03-09T05:17:43.073Z,7.00
2019-03-09T05:20:11.568Z,7.00
2019-03-09T05:22:39.997Z,7.10
2019-03-09T05:25:08.756Z,7.10
2019-03-09T05:27:37.190Z,7.10
2019-03-09T05:30:11.510Z,7.20
2019-03-09T05:32:39.926Z,7.20
2019-03-09T05:35:08.551Z,7.20
2019-03-09T05:37:43.029Z,7.20
2019-03-09T05:40:08.073Z,7.30
2019-03-09T05:42:36.546Z,7.30
2019-03-09T05:45:06.923Z,7.40
2019-03-09T05:47:35.350Z,7.40
2019-03-09T05:50:05.626Z,7.40
2019-03-09T05:52:34.042Z,7.40
2019-03-09T05:55:02.649Z,7.40
2019-03-09T05:57:31.067Z,7.50
2019-03-09T05:59:59.510Z,7.50
2019-03-09T06:02:27.954Z,7.50
2019-03-09T06:04:56.376Z,7.50
2019-03-09T06:07:24.822Z,7.50
2019-03-09T06:09:53.254Z,7.50
2019-03-09T06:12:21.695Z,7.40
2019-03-09T06:14:50.114Z,7.40
2019-03-09T06:17:18.533Z,7.30
2019-03-09T06:19:46.971Z,7.30
2019-03-09T06:22:15.390Z,7.20
2019-03-09T06:24:43.874Z,7.20
2019-03-09T06:27:12.318Z,7.20
2019-03-09T06:29:40.741Z,7.20
2019-03-09T06:32:28.809Z,7.20
2019-03-09T06:34:57.239Z,7.20
2019-03-09T06:37:25.684Z,7.10
2019-03-09T06:39:56.359Z,7.10
2019-03-09T06:42:36.599Z,7.20
2019-03-09T06:45:08.247Z,7.20
2019-03-09T06:47:36.662Z,7.20
2019-03-09T06:50:10.666Z,7.20
2019-03-09T06:52:39.159Z,7.30
2019-03-09T06:55:10.602Z,7.30
2019-03-09T06:57:39.012Z,7.40
2019-03-09T07:00:27.273Z,7.50
2019-03-09T07:02:55.843Z,7.50
2019-03-09T07:05:24.359Z,7.50
2019-03-09T07:07:52.855Z,7.60
2019-03-09T07:10:21.363Z,7.60
2019-03-09T07:12:49.801Z,7.60
2019-03-09T07:15:23.379Z,7.70
2019-03-09T07:17:53.652Z,7.70
2019-03-09T07:20:22.075Z,7.70
2019-03-09T07:22:50.604Z,7.80
2019-03-09T07:25:19.107Z,7.80
2019-03-09T07:27:59.431Z,7.80
2019-03-09T07:30:28.138Z,7.90
2019-03-09T07:32:56.550Z,7.90
2019-03-09T07:35:25.988Z,7.90
2019-03-09T07:37:54.487Z,7.90
2019-03-09T07:40:22.923Z,7.90
2019-03-09T07:42:51.348Z,7.90
2019-03-09T07:45:19.782Z,8.00
2019-03-09T07:47:48.197Z,8.00
2019-03-09T07:50:17.654Z,8.10
2019-03-09T07:52:46.163Z,8.10
2019-03-09T07:55:17.274Z,8.20
2019-03-09T07:57:45.786Z,8.20
2019-03-09T08:00:23.418Z,8.20
2019-03-09T08:02:51.840Z,8.30
2019-03-09T08:05:20.292Z,8.40
2019-03-09T08:07:48.751Z,8.50
2019-03-09T08:10:19.479Z,8.50
2019-03-09T08:12:47.940Z,8.60
2019-03-09T08:15:17.873Z,8.60
2019-03-09T08:17:46.746Z,8.70
2019-03-09T08:20:17.473Z,8.80
2019-03-09T08:22:46.137Z,8.80
2019-03-09T08:25:22.884Z,8.80
2019-03-09T08:27:51.460Z,8.90
2019-03-09T08:30:27.302Z,8.90
2019-03-09T08:32:55.720Z,9.00
2019-03-09T08:35:24.145Z,9.00
2019-03-09T08:37:52.797Z,9.00
2019-03-09T08:40:22.005Z,8.90
2019-03-09T08:42:50.575Z,9.00
2019-03-09T08:45:20.445Z,8.90
2019-03-09T08:47:52.644Z,8.90
2019-03-09T08:50:22.759Z,8.90
2019-03-09T08:52:51.942Z,9.00
2019-03-09T08:55:20.593Z,9.10
2019-03-09T08:57:49.085Z,9.10
2019-03-09T09:00:22.885Z,9.10
2019-03-09T09:02:51.450Z,9.10
2019-03-09T09:05:19.878Z,9.00
2019-03-09T09:07:48.332Z,9.00
2019-03-09T09:10:16.933Z,9.00
2019-03-09T09:12:45.861Z,9.00
2019-03-09T09:15:15.730Z,9.00
2019-03-09T09:17:44.179Z,9.00
2019-03-09T09:20:15.659Z,9.00
2019-03-09T09:22:44.090Z,9.00
2019-03-09T09:25:13.735Z,9.10
2019-03-09T09:27:42.245Z,9.10
2019-03-09T09:30:16.408Z,9.20
2019-03-09T09:32:44.814Z,9.20
2019-03-09T09:35:14.214Z,9.40
2019-03-09T09:37:42.708Z,9.40
2019-03-09T09:40:14.222Z,9.50
2019-03-09T09:42:42.638Z,9.80
2019-03-09T09:45:13.366Z,10.00
2019-03-09T09:47:42.721Z,10.10
2019-03-09T09:50:15.844Z,9.60
2019-03-09T09:52:44.550Z,9.90
2019-03-09T09:55:15.675Z,9.90
2019-03-09T09:57:44.203Z,10.00
2019-03-09T10:00:20.932Z,10.00
2019-03-09T10:02:49.521Z,10.00
2019-03-09T10:05:17.959Z,10.10
2019-03-09T10:07:46.479Z,10.10
2019-03-09T10:10:20.228Z,10.30
2019-03-09T10:12:48.735Z,10.30
2019-03-09T10:15:19.531Z,10.30
2019-03-09T10:17:47.959Z,10.40
2019-03-09T10:20:16.379Z,10.40
2019-03-09T10:22:44.807Z,10.40
2019-03-09T10:25:13.688Z,10.40
2019-03-09T10:27:42.346Z,10.40
2019-03-09T10:30:13.865Z,10.50
2019-03-09T10:32:42.366Z,10.40
2019-03-09T10:35:10.846Z,10.40
2019-03-09T10:37:39.286Z,10.30
2019-03-09T10:40:09.828Z,10.30
2019-03-09T10:42:38.275Z,10.30
2019-03-09T10:45:13.039Z,10.30
2019-03-09T10:47:41.831Z,10.30
2019-03-09T10:50:12.703Z,10.30
2019-03-09T10:52:41.244Z,10.30
2019-03-09T10:55:20.904Z,10.30
2019-03-09T10:57:49.326Z,10.30
2019-03-09T11:00:29.606Z,10.30
2019-03-09T11:02:58.303Z,10.50
2019-03-09T11:05:26.798Z,10.50
2019-03-09T11:07:55.381Z,10.50
2019-03-09T11:10:23.945Z,10.60
2019-03-09T11:12:52.519Z,10.60
2019-03-09T11:15:21.025Z,10.50
2019-03-09T11:17:49.528Z,10.50
2019-03-09T11:20:19.283Z,10.60
2019-03-09T11:22:47.801Z,10.60
2019-03-09T11:25:16.251Z,10.60
2019-03-09T11:27:44.687Z,10.70
2019-03-09T11:30:21.430Z,10.70
2019-03-09T11:32:49.902Z,10.70
2019-03-09T11:35:18.327Z,10.80
2019-03-09T11:37:46.859Z,10.80
2019-03-09T11:40:15.407Z,10.80
2019-03-09T11:42:43.917Z,10.90
2019-03-09T11:45:14.600Z,10.80
2019-03-09T11:47:43.019Z,10.80
2019-03-09T11:50:13.880Z,10.80
2019-03-09T11:52:42.387Z,10.90
2019-03-09T11:55:12.641Z,10.90
2019-03-09T11:57:41.251Z,11.00
2019-03-09T12:00:12.815Z,11.00
2019-03-09T12:02:41.303Z,11.00
2019-03-09T12:05:10.285Z,11.00
2019-03-09T12:07:38.716Z,11.10
2019-03-09T12:10:09.778Z,11.20
2019-03-09T12:12:38.478Z,11.30
2019-03-09T12:15:09.972Z,11.50
2019-03-09T12:17:38.538Z,11.60
2019-03-09T12:20:09.217Z,11.60
2019-03-09T12:22:37.680Z,11.70
2019-03-09T12:25:10.821Z,11.60
2019-03-09T12:27:39.260Z,11.50
2019-03-09T12:30:13.643Z,11.50
2019-03-09T12:32:42.082Z,11.70
2019-03-09T12:35:10.674Z,11.90
2019-03-09T12:37:39.160Z,11.90
2019-03-09T12:40:17.977Z,12.10
2019-03-09T12:42:46.674Z,12.20
2019-03-09T12:45:16.082Z,12.00
2019-03-09T12:47:44.628Z,11.90
2019-03-09T12:50:20.908Z,11.90
2019-03-09T12:52:49.590Z,12.00
2019-03-09T12:55:18.018Z,11.90
2019-03-09T12:57:46.618Z,11.90
2019-03-09T13:00:20.612Z,11.90
2019-03-09T13:02:49.455Z,11.90
2019-03-09T13:05:18.531Z,11.90
2019-03-09T13:07:47.151Z,11.60
2019-03-09T13:10:16.539Z,11.60
2019-03-09T13:12:45.319Z,11.60
2019-03-09T13:15:15.384Z,11.80
2019-03-09T13:17:44.097Z,12.10
2019-03-09T13:20:16.560Z,12.30
2019-03-09T13:22:45.088Z,12.30
2019-03-09T13:25:14.569Z,12.10
2019-03-09T13:27:43.225Z,12.30
2019-03-09T13:30:20.152Z,12.20
2019-03-09T13:32:48.737Z,12.10
2019-03-09T13:35:17.226Z,12.10
2019-03-09T13:37:45.926Z,12.00
2019-03-09T13:40:15.897Z,12.10
2019-03-09T13:42:44.582Z,12.10
2019-03-09T13:45:16.901Z,11.90
2019-03-09T13:47:45.605Z,11.90
2019-03-09T13:50:15.559Z,11.70
2019-03-09T13:52:44.087Z,11.70
2019-03-09T13:55:13.412Z,11.50
2019-03-09T13:57:42.218Z,11.50
2019-03-09T14:00:18.762Z,11.50
2019-03-09T14:02:47.287Z,11.50
2019-03-09T14:05:15.871Z,11.50
2019-03-09T14:07:44.301Z,11.40
2019-03-09T14:10:15.144Z,11.20
2019-03-09T14:12:43.729Z,11.20
2019-03-09T14:15:18.608Z,11.10
2019-03-09T14:17:47.099Z,11.10
2019-03-09T14:20:18.248Z,11.10
2019-03-09T14:22:46.682Z,11.10
2019-03-09T14:25:16.648Z,11.10
2019-03-09T14:27:45.153Z,11.00
2019-03-09T14:30:18.659Z,11.00
2019-03-09T14:32:47.116Z,10.90
2019-03-09T14:35:15.702Z,10.70
2019-03-09T14:37:44.219Z,10.40
2019-03-09T14:40:14.495Z,9.20
2019-03-09T14:42:43.055Z,8.50
2019-03-09T14:45:14.368Z,8.10
2019-03-09T14:47:42.846Z,7.80
2019-03-09T14:50:12.106Z,7.60
2019-03-09T14:52:40.542Z,7.60
2019-03-09T14:55:10.599Z,7.50
2019-03-09T14:57:39.046Z,7.60
2019-03-09T15:00:15.911Z,7.80
2019-03-09T15:02:44.402Z,8.00
2019-03-09T15:05:13.104Z,8.00
2019-03-09T15:07:41.682Z,8.00
2019-03-09T15:10:12.539Z,8.10
2019-03-09T15:12:40.958Z,8.10
2019-03-09T15:15:12.406Z,8.10
2019-03-09T15:17:40.831Z,8.00
2019-03-09T15:20:13.698Z,8.00
2019-03-09T15:22:42.126Z,7.90
2019-03-09T15:25:15.340Z,7.90
2019-03-09T15:27:43.779Z,7.90
2019-03-09T15:30:14.922Z,7.90
2019-03-09T15:32:43.417Z,7.90
2019-03-09T15:35:12.291Z,7.90
2019-03-09T15:37:40.829Z,7.90
2019-03-09T15:40:11.812Z,7.90
2019-03-09T15:42:40.384Z,8.00
2019-03-09T15:45:11.642Z,7.90
2019-03-09T15:47:40.151Z,7.90
2019-03-09T15:50:11.403Z,7.90
2019-03-09T15:52:39.922Z,8.00
2019-03-09T15:55:09.859Z,7.90
2019-03-09T15:57:38.666Z,8.00
2019-03-09T16:00:16.089Z,8.00
2019-03-09T16:02:44.638Z,8.00
2019-03-09T16:05:13.462Z,8.00
2019-03-09T16:07:41.958Z,8.00
2019-03-09T16:10:12.927Z,6.70
2019-03-09T16:12:41.378Z,5.70
2019-03-09T16:15:12.271Z,5.80
2019-03-09T16:17:40.715Z,5.70
2019-03-09T16:20:24.082Z,5.80
2019-03-09T16:22:52.536Z,6.00
2019-03-09T16:25:21.084Z,6.10
2019-03-09T16:27:49.565Z,6.10
2019-03-09T16:30:21.945Z,6.10
2019-03-09T16:32:50.517Z,6.10
2019-03-09T16:35:19.027Z,6.10
2019-03-09T16:37:51.686Z,6.10
2019-03-09T16:40:25.467Z,6.10
2019-03-09T16:42:54.015Z,5.10
2019-03-09T16:45:22.457Z,6.40
2019-03-09T16:47:50.884Z,6.20
2019-03-09T16:50:19.783Z,6.20
2019-03-09T16:52:48.280Z,6.10
2019-03-09T16:55:16.888Z,6.20
2019-03-09T16:57:45.383Z,6.20
2019-03-09T17:00:16.266Z,6.20
2019-03-09T17:02:44.762Z,6.20
2019-03-09T17:05:13.942Z,6.10
2019-03-09T17:07:42.559Z,6.30
2019-03-09T17:10:15.423Z,6.20
2019-03-09T17:12:43.861Z,6.20
2019-03-09T17:15:17.565Z,6.20
2019-03-09T17:17:46.135Z,6.30
2019-03-09T17:20:16.034Z,6.30
2019-03-09T17:22:44.591Z,6.30
2019-03-09T17:25:14.265Z,6.40
2019-03-09T17:27:42.701Z,6.40
2019-03-09T17:30:18.645Z,6.60
2019-03-09T17:32:47.232Z,6.60
2019-03-09T17:35:15.658Z,6.50
2019-03-09T17:37:44.319Z,6.60
2019-03-09T17:40:16.708Z,6.60
2019-03-09T17:42:45.285Z,6.70
2019-03-09T17:45:19.574Z,6.80
2019-03-09T17:47:48.090Z,6.70
2019-03-09T17:50:16.503Z,6.70
2019-03-09T17:52:45.096Z,6.80
2019-03-09T17:55:13.618Z,6.70
2019-03-09T17:57:42.036Z,6.70
2019-03-09T18:00:16.643Z,6.70
2019-03-09T18:02:45.173Z,6.70
2019-03-09T18:05:13.667Z,6.70
2019-03-09T18:07:42.146Z,6.70
2019-03-09T18:10:25.358Z,6.70
2019-03-09T18:12:53.790Z,6.60
2019-03-09T18:15:22.260Z,6.70
2019-03-09T18:17:50.698Z,6.60
2019-03-09T18:20:19.190Z,6.60
2019-03-09T18:22:47.648Z,6.60
2019-03-09T18:25:16.075Z,6.60
2019-03-09T18:27:44.515Z,6.60
2019-03-09T18:30:13.291Z,6.60
2019-03-09T18:32:41.796Z,6.50
2019-03-09T18:35:11.583Z,6.50
2019-03-09T18:37:40.011Z,6.50
2019-03-09T18:40:11.155Z,6.40
2019-03-09T18:42:39.694Z,6.50
2019-03-09T18:45:13.496Z,6.40
2019-03-09T18:47:41.943Z,6.50
2019-03-09T18:50:10.798Z,6.40
2019-03-09T18:52:39.221Z,6.50
2019-03-09T18:55:08.699Z,6.50
2019-03-09T18:57:37.225Z,6.50
2019-03-09T19:00:19.858Z,6.50
2019-03-09T19:02:48.536Z,6.40
2019-03-09T19:05:17.214Z,6.40
2019-03-09T19:07:45.771Z,6.30
2019-03-09T19:10:24.545Z,6.40
2019-03-09T19:12:53.087Z,6.30
2019-03-09T19:15:21.689Z,6.30
2019-03-09T19:17:50.128Z,6.20
2019-03-09T19:20:20.092Z,6.10
2019-03-09T19:22:48.520Z,6.10
2019-03-09T19:25:17.283Z,6.10
2019-03-09T19:27:45.791Z,6.10
2019-03-09T19:30:16.834Z,6.10
2019-03-09T19:32:45.421Z,6.10
2019-03-09T19:35:14.130Z,6.10
2019-03-09T19:37:42.596Z,6.00
2019-03-09T19:40:18.586Z,6.00
2019-03-09T19:42:47.111Z,6.10
2019-03-09T19:45:21.969Z,6.00
2019-03-09T19:47:50.399Z,6.10
2019-03-09T19:50:24.245Z,6.00
2019-03-09T19:52:52.853Z,6.10
2019-03-09T19:55:21.437Z,6.10
2019-03-09T19:57:49.904Z,6.00
2019-03-09T20:00:19.483Z,6.00
2019-03-09T20:02:47.999Z,6.00
2019-03-09T20:05:16.803Z,6.00
2019-03-09T20:07:45.240Z,6.10
2019-03-09T20:10:15.394Z,6.00
2019-03-09T20:12:43.840Z,6.00
2019-03-09T20:15:14.993Z,6.10
2019-03-09T20:17:45.755Z,6.10
2019-03-09T20:20:15.139Z,6.00
2019-03-09T20:22:43.687Z,6.10
2019-03-09T20:25:13.072Z,6.00
2019-03-09T20:27:41.503Z,6.00
2019-03-09T20:30:18.304Z,6.10
2019-03-09T20:32:46.965Z,6.10
2019-03-09T20:35:15.370Z,6.20
2019-03-09T20:37:43.810Z,6.20
2019-03-09T20:40:17.259Z,6.20
2019-03-09T20:42:45.916Z,6.30
2019-03-09T20:45:15.978Z,6.30
2019-03-09T20:47:44.498Z,6.30
2019-03-09T20:50:17.431Z,6.30
2019-03-09T20:52:45.889Z,6.40
2019-03-09T20:55:14.400Z,6.40
2019-03-09T20:57:42.939Z,6.40
2019-03-09T21:00:13.896Z,6.40
2019-03-09T21:02:42.406Z,6.50
2019-03-09T21:05:10.940Z,6.50
2019-03-09T21:07:39.408Z,6.50
2019-03-09T21:10:13.756Z,6.50
2019-03-09T21:13:01.775Z,6.50
2019-03-09T21:15:30.268Z,6.50
2019-03-09T21:17:58.752Z,6.50
2019-03-09T21:20:27.195Z,6.50
2019-03-09T21:22:55.608Z,6.50
2019-03-09T21:25:24.034Z,6.50
2019-03-09T21:27:52.458Z,6.50
2019-03-09T21:30:20.942Z,6.50
2019-03-09T21:32:49.404Z,6.50
2019-03-09T21:35:17.894Z,6.40
2019-03-09T21:37:46.408Z,6.40
2019-03-09T21:40:14.904Z,6.40
2019-03-09T21:42:43.488Z,6.40
2019-03-09T21:45:15.783Z,6.40
2019-03-09T21:47:44.384Z,6.40
2019-03-09T21:50:19.069Z,6.40
2019-03-09T21:52:47.515Z,6.40
2019-03-09T21:55:16.986Z,6.40
2019-03-09T21:57:45.483Z,6.40
2019-03-09T22:00:19.114Z,6.40
2019-03-09T22:02:47.531Z,6.40
2019-03-09T22:05:16.186Z,6.60
2019-03-09T22:07:44.622Z,6.60
2019-03-09T22:10:13.853Z,6.60
2019-03-09T22:12:42.288Z,6.70
2019-03-09T22:15:15.571Z,6.70
2019-03-09T22:17:44.089Z,6.80
2019-03-09T22:20:13.467Z,6.80
2019-03-09T22:22:42.230Z,6.90
2019-03-09T22:25:17.222Z,6.90
2019-03-09T22:27:45.750Z,6.90
2019-03-09T22:30:22.012Z,7.00
2019-03-09T22:32:50.422Z,7.00
2019-03-09T22:35:18.868Z,7.00
2019-03-09T22:37:47.323Z,7.00
2019-03-09T22:40:17.863Z,6.90
2019-03-09T22:42:46.358Z,7.00
2019-03-09T22:45:15.543Z,7.10
2019-03-09T22:47:44.333Z,7.10
2019-03-09T22:50:23.467Z,7.00
2019-03-09T22:52:51.930Z,7.00
2019-03-09T22:55:20.534Z,7.10
2019-03-09T22:57:49.267Z,7.10
2019-03-09T23:00:20.282Z,7.00
2019-03-09T23:02:48.776Z,7.10
2019-03-09T23:05:17.444Z,7.10
2019-03-09T23:07:45.931Z,7.00
2019-03-09T23:10:20.284Z,7.00
2019-03-09T23:12:48.710Z,7.00
2019-03-09T23:15:17.978Z,7.00
2019-03-09T23:17:46.582Z,6.80
2019-03-09T23:20:16.806Z,6.80
2019-03-09T23:22:45.585Z,6.70
2019-03-09T23:25:15.011Z,6.70
2019-03-09T23:27:43.561Z,6.80
2019-03-09T23:30:17.914Z,6.80
2019-03-09T23:32:46.401Z,6.80
2019-03-09T23:35:15.458Z,6.90
2019-03-09T23:37:44.827Z,6.90
2019-03-09T23:40:18.535Z,6.90
2019-03-09T23:42:47.023Z,6.90
2019-03-09T23:45:24.487Z,6.90
2019-03-09T23:47:53.182Z,6.90
2019-03-09T23:50:21.948Z,7.00
2019-03-09T23:52:50.594Z,7.00
2019-03-09T23:55:22.394Z,7.00
2019-03-09T23:57:49.967Z,7.00
